Weather observations for the past three days for
Terre Haute Regional Airport
Metric (Imperial)
Date Time (edt) Wind (kph) Vis. (km) Weather Sky Cond. Temperature (ºC) Relative Humidity Wind Chill (°C) Heat Index (°C) Pressure Precipitation (cm)
Air Dwpt 6 hour altimeter (cm) sea level (mb) 1 hr 3 hr 6 hr
Max. Min.
03 03:53 SE 6 16.09 Fair CLR 22.8 21.7 94% 76.2 1015.4
03 02:53 Calm 16.09 Fair CLR 23.9 21.7 88% 24 76.2 1015.4
03 01:53 Calm 16.09 Fair CLR 24.4 21.7 31.7 23.9 85% 25 76.23 1015.4
03 00:53 S 6 16.09 Fair CLR 24.4 22.8 91% 24 76.17 1015.0
02 23:53 Calm 16.09 Fair CLR 24.4 23.9 97% 24 76.17 1014.8
02 22:53 Calm 16.09 Partly Cloudy SCT085 26.1 24.4 90% 28 76.17 1014.9
02 21:53 Calm 16.09 Mostly Cloudy BKN085 26.7 25.6 94% 30 76.15 1014.7
02 20:53 Calm 16.09 A Few Clouds FEW075 27.2 25.6 91% 31 76.12 1014.3
02 19:53 S 7 16.09 Fair CLR 31.7 25 35.6 31.7 68% 39 76.12 1014.2
02 18:53 S 7 16.09 A Few Clouds FEW070 33.9 23.9 56% 40 76.12 1014.2
02 17:53 S 7 16.09 Mostly Cloudy SCT070 BKN085 BKN110 33.3 23.9 58% 39 76.15 1014.5
02 16:53 SW 11 16.09 Fair CLR 35 22.2 47% 40 76.17 1014.8
02 15:53 SW 7 16.09 A Few Clouds FEW065 35.6 22.2 46% 40 76.2 1015.4
02 14:53 SW 15 16.09 Fair CLR 35.6 22.2 46% 40 76.25 1015.9
02 13:53 W 19 16.09 Fair CLR 34.4 22.8 34.4 22.2 51% 40 76.28 1016.2
02 12:53 W 20 16.09 Fair CLR 33.3 22.8 54% 38 76.33 1016.8
02 11:53 SW 13 16.09 Fair CLR 32.2 23.3 59% 37 76.33 1017.0
02 10:53 SW 15 16.09 Fair CLR 30.6 23.9 67% 36 76.33 1017.0
02 09:53 SW 9 16.09 Fair CLR 28.3 22.8 72% 32 76.35 1017.2
02 08:53 S 6 16.09 Fair CLR 25.6 22.8 85% 27 76.35 1017.4
02 07:53 SE 6 14.48 Fair CLR 22.2 21.1 23.9 21.1 94% 76.35 1017.4
02 06:53 Calm 16.09 Fair CLR 21.7 21.1 96% 76.33 1017.0
02 05:53 SE 6 16.09 Fair CLR 22.2 21.1 94% 76.3 1016.5
02 04:53 Calm 16.09 Fair CLR 22.2 21.1 94% 76.28 1016.4
02 03:53 Calm 16.09 Fair CLR 22.8 21.7 94% 76.28 1016.2
02 02:53 Calm 16.09 Fair CLR 22.2 22.2 100% 76.28 1016.2
02 01:53 Calm 16.09 Fair CLR 23.9 22.2 30.6 23.3 90% 23 76.28 1016.1
02 00:53 Calm 16.09 Fair CLR 23.9 22.2 90% 23 76.25 1016.0
01 23:53 S 6 16.09 Fair CLR 26.1 22.2 79% 28 76.25 1016.1
01 22:53 Calm 16.09 Fair CLR 25.6 23.9 90% 27 76.25 1016.1
01 21:53 Calm 16.09 Fair CLR 25.6 24.4 93% 27 76.23 1015.8
01 20:53 Calm 16.09 Fair CLR 26.1 25 94% 28 76.2 1015.3
01 19:53 Calm 16.09 Fair CLR 30.6 25 36.1 30.6 72% 37 76.2 1015.2
01 18:53 S 7 16.09 Fair CLR 33.9 22.8 52% 39 76.2 1015.3
01 17:53 S 11 16.09 Fair CLR 35 22.2 47% 40 76.2 1015.2
01 16:53 SW 15 16.09 Fair CLR 35.6 21.1 43% 39 76.2 1015.3
01 15:53 SW 11 16.09 Fair CLR 36.1 21.7 43% 41 76.23 1015.6
01 14:53 SW 13 16.09 Fair CLR 35 21.7 46% 39 76.28 1016.2
01 13:53 SW 15 16.09 Fair CLR 34.4 22.2 34.4 23.3 49% 39 76.3 1016.6
01 12:53 SW 17 16.09 Fair CLR 33.3 22.2 52% 38 76.33 1017.1
01 11:53 SW 15 16.09 Fair CLR 31.7 22.8 59% 36 76.35 1017.3
01 10:53 SW 15 16.09 Fair CLR 30 22.8 65% 34 76.35 1017.4
01 09:53 SW 11 16.09 Fair CLR 27.8 22.2 72% 30 76.35 1017.5
01 08:53 S 11 16.09 Fair CLR 25.6 21.7 79% 27 76.38 1017.7
01 07:53 S 6 16.09 Fair CLR 23.3 21.1 25.6 22.8 88% 76.33 1017.0
01 06:53 SW 9 16.09 Fair CLR 23.3 21.1 88% 76.3 1016.7
01 05:53 SW 7 16.09 Fair CLR 23.3 21.1 88% 76.3 1016.4
01 04:53 SW 7 16.09 Fair CLR 23.9 21.1 84% 24 76.28 1016.4
01 03:53 SW 7 16.09 Fair CLR 24.4 21.1 82% 25 76.28 1016.4
01 02:53 S 9 16.09 Fair CLR 25 21.1 79% 26 76.28 1016.2
01 01:53 SW 9 16.09 Fair CLR 25.6 21.7 30.6 24.4 79% 27 76.3 1016.5
01 00:53 S 11 16.09 Fair CLR 25.6 21.7 79% 27 76.28 1016.2
31 23:53 S 9 16.09 Fair CLR 26.1 21.7 77% 28 76.28 1016.2
31 22:53 S 7 16.09 Fair CLR 26.1 21.7 77% 28 76.28 1016.3
31 21:53 S 9 16.09 Fair CLR 26.7 21.7 74% 29 76.25 1015.9
31 20:53 S 11 16.09 Fair CLR 27.2 22.2 74% 30 76.2 1015.4
31 19:53 S 9 16.09 Fair CLR 30.6 22.2 33.9 30.6 61% 34 76.2 1015.3
31 18:53 S 11 16.09 Fair CLR 32.8 20.6 49% 36 76.2 1015.5
31 17:53 SW 11 16.09 Fair CLR 33.3 20 46% 36 76.2 1015.5
31 16:53 SW 17 16.09 Fair CLR 33.9 19.4 42% 36 76.23 1015.7
31 15:53 SW 22 G 31 16.09 A Few Clouds FEW045 33.9 19.4 42% 36 76.28 1016.4
31 14:53 SW 11 G 31 16.09 Fair CLR 33.3 21.1 49% 37 76.35 1017.1
31 13:53 SW 19 16.09 Fair CLR 32.8 21.7 32.8 20.6 52% 36 76.38 1017.7
31 12:53 SW 17 G 31 16.09 A Few Clouds FEW049 32.2 22.8 58% 37 76.4 1018.1
31 11:53 S 13 16.09 Fair CLR 30.6 23.3 65% 35 76.43 1018.3
31 09:53 S 11 16.09 Fair CLR 26.1 22.8 82% 28 76.4 1018.1
31 08:53 S 7 16.09 Fair CLR 24.4 21.7 85% 25 76.38 1017.7
31 07:53 SE 6 16.09 Fair CLR 20.6 19.4 21.7 19.4 93% 76.35 1017.3
31 06:53 SE 7 16.09 Fair CLR 20 19.4 96% 76.33 1017.0
31 05:53 SE 6 16.09 Fair CLR 20 18.9 93% 76.3 1016.6
31 04:53 NE 6 16.09 Fair CLR 20 18.9 93% 76.3 1016.7
Date Time (edt) Wind (kph) Vis. (km) Weather Sky Cond. Air Dwpt Max. Min. Relative Humidity Wind Chill (°C) Heat Index (°C) altimeter (cm) sea level (mb) 1 hr 3 hr 6 hr
6 hour
Temperature (ºC) Pressure Precipitation (cm)